Time;durP1;ratioP1;P1;durP2;ratioP2;P2;SDS_P1;SDS_P2;PMS_P1;PMS_P2;Temp;Humidity;BMP_temperature;BMP_pressure;BME280_temperature;BME280_humidity;BME280_pressure;Samples;Min_cycle;Max_cycle;Signal;HPM_P1;HPM_P2
2023/10/16 00:00:42;;;;;;;0.80;0.80;;;;;;;;;;5034735;28;20178;-88
2023/10/16 00:03:09;;;;;;;0.80;0.80;;;;;;;;;;5033363;28;20203;-88
2023/10/16 00:05:38;;;;;;;0.80;0.80;;;;;;;;;;5034599;28;20573;-88
2023/10/16 00:08:07;;;;;;;0.83;0.83;;;;;;;;;;5034740;28;20807;-89
2023/10/16 00:10:35;;;;;;;0.80;0.80;;;;;;;;;;5034384;28;20321;-88
2023/10/16 00:13:04;;;;;;;0.90;0.90;;;;;;;;;;5032989;28;20282;-88
2023/10/16 00:15:33;;;;;;;0.87;0.87;;;;;;;;;;5033139;28;20182;-88
2023/10/16 00:18:00;;;;;;;0.87;0.87;;;;;;;;;;5034778;28;20241;-87
2023/10/16 00:20:27;;;;;;;0.80;0.80;;;;;;;;;;5033671;28;20175;-88
2023/10/16 00:22:52;;;;;;;0.80;0.80;;;;;;;;;;5034052;28;20593;-88
2023/10/16 00:25:24;;;;;;;0.80;0.80;;;;;;;;;;5034404;28;20175;-89
2023/10/16 00:27:50;;;;;;;0.80;0.80;;;;;;;;;;5034369;28;20164;-88
2023/10/16 00:30:17;;;;;;;0.80;0.80;;;;;;;;;;5032867;28;20211;-88
2023/10/16 00:32:43;;;;;;;0.80;0.80;;;;;;;;;;5033593;28;20191;-89
2023/10/16 00:35:10;;;;;;;0.80;0.80;;;;;;;;;;5034344;28;20176;-88
2023/10/16 00:37:37;;;;;;;0.80;0.80;;;;;;;;;;5033495;28;20202;-88
2023/10/16 00:40:10;;;;;;;0.80;0.80;;;;;;;;;;5034391;28;20182;-89
2023/10/16 00:42:36;;;;;;;0.80;0.80;;;;;;;;;;5033251;28;20278;-88
2023/10/16 00:45:03;;;;;;;0.80;0.80;;;;;;;;;;5032982;28;20218;-89
2023/10/16 00:47:30;;;;;;;0.80;0.80;;;;;;;;;;5032874;28;20172;-88
2023/10/16 00:50:00;;;;;;;0.83;0.83;;;;;;;;;;5032914;28;20601;-88
2023/10/16 00:52:26;;;;;;;0.90;0.90;;;;;;;;;;5033765;28;20689;-88
2023/10/16 00:54:53;;;;;;;0.80;0.80;;;;;;;;;;5034408;28;20176;-88
2023/10/16 00:57:27;;;;;;;0.87;0.87;;;;;;;;;;5033035;28;20270;-88
2023/10/16 00:59:53;;;;;;;0.90;0.90;;;;;;;;;;5032909;28;20180;-88
2023/10/16 01:02:26;;;;;;;0.80;0.80;;;;;;;;;;5033371;28;20219;-89
2023/10/16 01:04:52;;;;;;;0.87;0.87;;;;;;;;;;5032149;28;20184;-88
2023/10/16 01:07:19;;;;;;;0.80;0.80;;;;;;;;;;5031816;28;20226;-88
2023/10/16 01:09:46;;;;;;;0.80;0.80;;;;;;;;;;5033756;28;20249;-87
2023/10/16 01:12:13;;;;;;;0.80;0.80;;;;;;;;;;5033419;28;20200;-89
2023/10/16 01:14:39;;;;;;;0.80;0.80;;;;;;;;;;5033549;28;20172;-89
2023/10/16 01:17:09;;;;;;;0.83;0.83;;;;;;;;;;5033560;28;20268;-89
2023/10/16 01:19:42;;;;;;;0.80;0.80;;;;;;;;;;5033746;28;20721;-89
2023/10/16 01:22:11;;;;;;;0.90;0.90;;;;;;;;;;5055507;28;20188;-87
2023/10/16 01:24:43;;;;;;;0.80;0.80;;;;;;;;;;5056597;28;20180;-88
2023/10/16 01:27:14;;;;;;;0.80;0.80;;;;;;;;;;5057128;28;20176;-87
2023/10/16 01:29:40;;;;;;;0.87;0.87;;;;;;;;;;5057052;28;20171;-88
2023/10/16 01:32:07;;;;;;;0.90;0.90;;;;;;;;;;5055971;28;20203;-87
2023/10/16 01:34:34;;;;;;;0.80;0.80;;;;;;;;;;5050470;28;20183;-89
2023/10/16 01:37:08;;;;;;;0.80;0.80;;;;;;;;;;5033646;28;20187;-89
2023/10/16 01:39:49;;;;;;;0.80;0.80;;;;;;;;;;5033871;28;20217;-89
2023/10/16 01:42:18;;;;;;;0.80;0.80;;;;;;;;;;5048441;28;20242;-88
2023/10/16 01:44:44;;;;;;;0.80;0.80;;;;;;;;;;5054348;28;20190;-89
2023/10/16 01:47:16;;;;;;;0.80;0.80;;;;;;;;;;5054150;28;20210;-89
2023/10/16 01:49:42;;;;;;;0.90;0.90;;;;;;;;;;5036002;28;20259;-89
2023/10/16 01:52:11;;;;;;;0.80;0.80;;;;;;;;;;5032439;28;20203;-89
2023/10/16 01:54:40;;;;;;;0.90;0.90;;;;;;;;;;5031252;28;20274;-89
2023/10/16 01:57:12;;;;;;;0.80;0.80;;;;;;;;;;5032606;28;20182;-88
2023/10/16 01:59:42;;;;;;;0.80;0.80;;;;;;;;;;5032749;28;20171;-88
2023/10/16 02:02:09;;;;;;;0.80;0.80;;;;;;;;;;5032205;28;20249;-88
2023/10/16 02:04:35;;;;;;;0.83;0.83;;;;;;;;;;5031110;28;20611;-89
2023/10/16 02:07:01;;;;;;;0.77;0.77;;;;;;;;;;5032702;28;20578;-89
2023/10/16 02:09:31;;;;;;;0.90;0.90;;;;;;;;;;5032411;28;20186;-89
2023/10/16 02:11:58;;;;;;;0.80;0.80;;;;;;;;;;5031728;28;20298;-89
2023/10/16 02:14:24;;;;;;;0.80;0.80;;;;;;;;;;5032595;28;20175;-89
2023/10/16 02:16:51;;;;;;;0.90;0.90;;;;;;;;;;5031284;28;20618;-89
2023/10/16 02:19:17;;;;;;;0.83;0.83;;;;;;;;;;5031114;28;20176;-89
2023/10/16 02:21:44;;;;;;;0.80;0.80;;;;;;;;;;5039257;28;20207;-88
2023/10/16 02:24:11;;;;;;;0.90;0.90;;;;;;;;;;5053574;28;20175;-89
2023/10/16 02:26:53;;;;;;;0.90;0.90;;;;;;;;;;5053386;28;20172;-88
2023/10/16 02:29:19;;;;;;;0.80;0.80;;;;;;;;;;5054477;28;20231;-88
2023/10/16 02:31:45;;;;;;;0.77;0.77;;;;;;;;;;5040195;28;20219;-89
2023/10/16 02:34:14;;;;;;;0.90;0.90;;;;;;;;;;5031092;28;20588;-89
2023/10/16 02:36:40;;;;;;;0.80;0.80;;;;;;;;;;5032115;28;20627;-89
2023/10/16 02:39:10;;;;;;;0.90;0.90;;;;;;;;;;5032300;28;20171;-89
2023/10/16 02:41:36;;;;;;;0.80;0.80;;;;;;;;;;5030509;28;20321;-88
2023/10/16 02:44:02;;;;;;;0.90;0.90;;;;;;;;;;5032237;28;20183;-88
2023/10/16 02:46:28;;;;;;;0.80;0.80;;;;;;;;;;5030845;28;20176;-89
2023/10/16 02:48:54;;;;;;;0.80;0.80;;;;;;;;;;5032326;28;20179;-88
2023/10/16 02:51:20;;;;;;;0.80;0.80;;;;;;;;;;5031441;28;20215;-89
2023/10/16 02:53:49;;;;;;;0.77;0.77;;;;;;;;;;5031828;28;20180;-88
2023/10/16 02:56:15;;;;;;;0.80;0.80;;;;;;;;;;5030659;28;20175;-89
2023/10/16 02:58:46;;;;;;;0.90;0.90;;;;;;;;;;5032022;28;20278;-89
2023/10/16 03:01:14;;;;;;;0.83;0.83;;;;;;;;;;5031546;28;20216;-89
2023/10/16 03:03:46;;;;;;;0.80;0.80;;;;;;;;;;5031966;28;20267;-89
2023/10/16 03:06:12;;;;;;;0.90;0.90;;;;;;;;;;5032203;28;20199;-89
2023/10/16 03:08:39;;;;;;;0.80;0.80;;;;;;;;;;5032348;28;20178;-88
2023/10/16 03:11:06;;;;;;;0.87;0.87;;;;;;;;;;5031352;28;20207;-88
2023/10/16 03:13:36;;;;;;;0.80;0.80;;;;;;;;;;5032318;28;20202;-89
2023/10/16 03:16:15;;;;;;;0.80;0.80;;;;;;;;;;5032539;28;20684;-88
2023/10/16 03:18:47;;;;;;;0.83;0.83;;;;;;;;;;5027766;28;20186;-89
2023/10/16 03:23:46;;;;;;;0.80;0.80;;;;;;;;;;5032877;28;20179;-89
2023/10/16 03:26:34;;;;;;;0.80;0.80;;;;;;;;;;5034281;28;20157;-89
2023/10/16 03:29:02;;;;;;;0.80;0.80;;;;;;;;;;5032033;28;20187;-89
2023/10/16 03:31:28;;;;;;;0.90;0.90;;;;;;;;;;5033786;28;20634;-89
2023/10/16 03:33:54;;;;;;;0.80;0.80;;;;;;;;;;5035513;28;20230;-89
2023/10/16 03:36:21;;;;;;;0.90;0.90;;;;;;;;;;5035391;28;20637;-89
2023/10/16 03:38:49;;;;;;;0.80;0.80;;;;;;;;;;5035558;28;20196;-89
2023/10/16 03:41:39;;;;;;;0.83;0.83;;;;;;;;;;5034878;28;20196;-88
2023/10/16 03:44:07;;;;;;;0.83;0.83;;;;;;;;;;5034691;28;20191;-89
2023/10/16 03:46:33;;;;;;;0.80;0.80;;;;;;;;;;5035433;28;20270;-89
2023/10/16 03:49:00;;;;;;;0.83;0.83;;;;;;;;;;5035276;28;20271;-87
2023/10/16 03:51:26;;;;;;;0.80;0.80;;;;;;;;;;5035102;28;20269;-87
2023/10/16 03:53:52;;;;;;;0.80;0.80;;;;;;;;;;5036418;28;20177;-86
2023/10/16 03:56:19;;;;;;;0.87;0.87;;;;;;;;;;5035538;28;20199;-87
2023/10/16 03:58:45;;;;;;;0.90;0.90;;;;;;;;;;5033585;28;20206;-87
2023/10/16 04:01:11;;;;;;;0.80;0.80;;;;;;;;;;5034328;28;20258;-86
2023/10/16 04:03:47;;;;;;;0.90;0.90;;;;;;;;;;5033661;28;20176;-87
2023/10/16 04:06:19;;;;;;;0.87;0.87;;;;;;;;;;5034470;28;20245;-87
2023/10/16 04:08:47;;;;;;;0.80;0.80;;;;;;;;;;5035271;28;20628;-86
2023/10/16 04:11:13;;;;;;;0.80;0.80;;;;;;;;;;5035766;28;20219;-84
2023/10/16 04:13:47;;;;;;;0.80;0.80;;;;;;;;;;5038362;28;20174;-84
2023/10/16 04:16:25;;;;;;;0.90;0.90;;;;;;;;;;5037751;28;20168;-86
2023/10/16 04:18:51;;;;;;;0.90;0.90;;;;;;;;;;5033654;28;20172;-85
2023/10/16 04:31:47;;;;;;;1.00;1.00;;;;;;;;;;5035267;28;20221;-86
2023/10/16 04:53:13;;;;;;;0.90;0.90;;;;;;;;;;5014560;28;20235;-86
2023/10/16 04:58:38;;;;;;;0.90;0.90;;;;;;;;;;5014085;28;20661;-86
2023/10/16 05:03:23;;;;;;;0.80;0.80;;;;;;;;;;5013962;28;20168;-86
2023/10/16 05:06:05;;;;;;;0.90;0.90;;;;;;;;;;5013579;28;20195;-87
2023/10/16 05:13:55;;;;;;;0.83;0.83;;;;;;;;;;5013759;28;20182;-86
2023/10/16 05:16:35;;;;;;;0.80;0.80;;;;;;;;;;5013694;28;20195;-88
2023/10/16 05:19:04;;;;;;;0.90;0.90;;;;;;;;;;5012494;28;20689;-87
2023/10/16 06:16:18;;;;;;;0.90;0.90;;;;;;;;;;5012991;28;20188;-87
2023/10/16 06:18:45;;;;;;;0.80;0.80;;;;;;;;;;5017463;28;20176;-88
2023/10/16 06:21:14;;;;;;;0.83;0.83;;;;;;;;;;5019481;28;20200;-87
2023/10/16 06:23:42;;;;;;;0.90;0.90;;;;;;;;;;5021618;28;20176;-87
2023/10/16 06:26:14;;;;;;;0.83;0.83;;;;;;;;;;5019387;28;20181;-88
2023/10/16 06:28:47;;;;;;;0.80;0.80;;;;;;;;;;5023995;28;20179;-90
2023/10/16 06:31:14;;;;;;;0.60;0.60;;;;;;;;;;5021502;28;20214;-87
2023/10/16 06:33:41;;;;;;;0.60;0.60;;;;;;;;;;5021439;28;20181;-88
2023/10/16 06:36:10;;;;;;;0.70;0.70;;;;;;;;;;5026781;28;20206;-88
2023/10/16 06:38:36;;;;;;;0.70;0.70;;;;;;;;;;5019122;28;20604;-87
2023/10/16 06:41:02;;;;;;;0.50;0.50;;;;;;;;;;5017217;28;20259;-90
2023/10/16 06:43:28;;;;;;;0.60;0.60;;;;;;;;;;5021282;28;20187;-88
2023/10/16 06:45:55;;;;;;;0.50;0.50;;;;;;;;;;5023269;28;20549;-87
2023/10/16 06:48:21;;;;;;;0.50;0.50;;;;;;;;;;5021815;28;20852;-87
2023/10/16 06:51:03;;;;;;;0.40;0.40;;;;;;;;;;5018842;28;20230;-89
2023/10/16 06:53:30;;;;;;;0.50;0.50;;;;;;;;;;5019025;28;20177;-88
2023/10/16 06:55:56;;;;;;;0.50;0.50;;;;;;;;;;5021493;28;20199;-86
2023/10/16 06:58:22;;;;;;;0.50;0.50;;;;;;;;;;5017175;28;20250;-88
2023/10/16 07:00:49;;;;;;;0.50;0.50;;;;;;;;;;5021979;28;20215;-87
2023/10/16 07:03:16;;;;;;;0.40;0.40;;;;;;;;;;5020560;28;20180;-86
2023/10/16 07:05:42;;;;;;;0.33;0.33;;;;;;;;;;5035021;28;20195;-88
2023/10/16 07:08:09;;;;;;;0.40;0.40;;;;;;;;;;5035799;28;20164;-87
2023/10/16 07:10:35;;;;;;;0.40;0.40;;;;;;;;;;5035544;28;20211;-86
2023/10/16 07:13:06;;;;;;;0.30;0.30;;;;;;;;;;5035149;28;20199;-86
2023/10/16 07:15:31;;;;;;;0.50;0.50;;;;;;;;;;5035439;28;20297;-88
2023/10/16 07:18:13;;;;;;;0.43;0.43;;;;;;;;;;5035645;28;20179;-87
2023/10/16 07:23:20;;;;;;;0.50;0.50;;;;;;;;;;5035676;28;20190;-86
2023/10/16 07:25:59;;;;;;;0.50;0.50;;;;;;;;;;5035090;28;20262;-86
2023/10/16 07:28:26;;;;;;;0.40;0.40;;;;;;;;;;5034655;28;20191;-88
2023/10/16 07:30:56;;;;;;;0.60;0.60;;;;;;;;;;5034968;28;20211;-88
2023/10/16 07:33:22;;;;;;;0.47;0.47;;;;;;;;;;5033945;28;20180;-87
2023/10/16 07:35:49;;;;;;;0.40;0.40;;;;;;;;;;5033984;28;20187;-87
2023/10/16 07:38:22;;;;;;;0.40;0.40;;;;;;;;;;5034981;28;20206;-87
2023/10/16 07:40:51;;;;;;;0.40;0.40;;;;;;;;;;5035128;28;20199;-87
2023/10/16 07:43:17;;;;;;;0.30;0.30;;;;;;;;;;5038726;28;20187;-86
2023/10/16 07:45:45;;;;;;;0.57;0.57;;;;;;;;;;5036671;28;20180;-86
2023/10/16 07:48:29;;;;;;;0.50;0.50;;;;;;;;;;5036767;28;20685;-88
2023/10/16 07:50:55;;;;;;;0.50;0.50;;;;;;;;;;5034883;28;20207;-87
2023/10/16 07:53:21;;;;;;;0.50;0.50;;;;;;;;;;5035538;28;20646;-87
2023/10/16 07:55:50;;;;;;;0.43;0.43;;;;;;;;;;5035064;28;20196;-86
2023/10/16 07:58:33;;;;;;;0.50;0.50;;;;;;;;;;5034992;28;20188;-87
2023/10/16 08:03:37;;;;;;;0.50;0.50;;;;;;;;;;5038560;28;20183;-84
2023/10/16 08:06:11;;;;;;;0.40;0.40;;;;;;;;;;5042426;28;20326;-85
2023/10/16 08:08:38;;;;;;;0.37;0.37;;;;;;;;;;5042878;28;20175;-84
2023/10/16 08:11:29;;;;;;;0.47;0.47;;;;;;;;;;5042413;28;20208;-87
2023/10/16 08:13:55;;;;;;;0.30;0.30;;;;;;;;;;5041585;28;20184;-86
2023/10/16 08:16:27;;;;;;;0.40;0.40;;;;;;;;;;5034882;28;20307;-86
2023/10/16 08:18:57;;;;;;;0.30;0.30;;;;;;;;;;5035766;28;20195;-88
2023/10/16 08:21:25;;;;;;;0.40;0.40;;;;;;;;;;5034530;28;20689;-84
2023/10/16 08:23:53;;;;;;;0.30;0.30;;;;;;;;;;5035217;28;20641;-86
2023/10/16 08:26:28;;;;;;;0.30;0.30;;;;;;;;;;5035285;28;20184;-85
2023/10/16 08:28:54;;;;;;;0.30;0.30;;;;;;;;;;5033456;28;20179;-85
2023/10/16 08:31:24;;;;;;;0.30;0.30;;;;;;;;;;5034478;28;20589;-84
2023/10/16 08:33:50;;;;;;;0.30;0.30;;;;;;;;;;5040396;28;20179;-87
2023/10/16 08:36:20;;;;;;;0.30;0.30;;;;;;;;;;5047495;28;20196;-88
2023/10/16 08:38:55;;;;;;;0.30;0.30;;;;;;;;;;5048675;28;20178;-87
2023/10/16 08:41:30;;;;;;;0.37;0.37;;;;;;;;;;5035836;28;20295;-84
2023/10/16 08:44:03;;;;;;;0.30;0.30;;;;;;;;;;5034594;28;20167;-87
2023/10/16 08:46:30;;;;;;;0.43;0.43;;;;;;;;;;5034461;28;20180;-88
2023/10/16 08:48:57;;;;;;;0.40;0.40;;;;;;;;;;5034401;28;20266;-87
2023/10/16 08:51:23;;;;;;;0.40;0.40;;;;;;;;;;5034072;28;20215;-85
2023/10/16 08:53:49;;;;;;;0.40;0.40;;;;;;;;;;5029496;28;20241;-85
2023/10/16 08:56:18;;;;;;;0.30;0.30;;;;;;;;;;5014450;28;20247;-88
2023/10/16 08:58:44;;;;;;;0.40;0.40;;;;;;;;;;5014682;28;20176;-88
2023/10/16 09:01:14;;;;;;;0.40;0.40;;;;;;;;;;5014736;28;20248;-88
2023/10/16 09:03:54;;;;;;;0.30;0.30;;;;;;;;;;5013817;28;20188;-87
2023/10/16 09:06:24;;;;;;;0.30;0.30;;;;;;;;;;5033661;28;20187;-88
2023/10/16 09:32:54;;;;;;;0.50;0.50;;;;;;;;;;5001461;28;20301;-82
2023/10/16 09:35:30;;;;;;;0.33;0.33;;;;;;;;;;4998529;28;20221;-85
2023/10/16 09:38:17;;;;;;;0.30;0.30;;;;;;;;;;4999004;28;20169;-84
2023/10/16 09:43:40;;;;;;;0.30;0.30;;;;;;;;;;5001911;28;20188;-82
2023/10/16 09:48:52;;;;;;;0.40;0.40;;;;;;;;;;4994697;28;20197;-85
2023/10/16 09:51:18;;;;;;;0.30;0.30;;;;;;;;;;4984927;28;20212;-84
2023/10/16 09:53:44;;;;;;;0.30;0.30;;;;;;;;;;4981143;28;20209;-83
2023/10/16 09:56:12;;;;;;;0.30;0.30;;;;;;;;;;4957071;28;20193;-82
2023/10/16 09:58:44;;;;;;;0.40;0.40;;;;;;;;;;4962803;28;20356;-87
2023/10/16 10:01:10;;;;;;;0.37;0.37;;;;;;;;;;4981242;28;20165;-84
2023/10/16 10:03:36;;;;;;;0.30;0.30;;;;;;;;;;4998464;28;20162;-87
2023/10/16 10:06:20;;;;;;;0.30;0.30;;;;;;;;;;4998229;28;20207;-88
2023/10/16 10:11:44;;;;;;;0.30;0.30;;;;;;;;;;4990169;28;20273;-83
2023/10/16 10:16:56;;;;;;;0.40;0.40;;;;;;;;;;4979937;28;20193;-84
2023/10/16 10:19:31;;;;;;;0.30;0.30;;;;;;;;;;4980011;28;20261;-84
2023/10/16 10:21:57;;;;;;;0.40;0.40;;;;;;;;;;4980395;28;20228;-84
2023/10/16 10:24:24;;;;;;;0.30;0.30;;;;;;;;;;4962157;28;20170;-85
2023/10/16 10:26:55;;;;;;;0.47;0.47;;;;;;;;;;4979609;28;20194;-84
2023/10/16 10:29:22;;;;;;;0.33;0.33;;;;;;;;;;4981804;28;20303;-85
2023/10/16 10:31:48;;;;;;;0.30;0.30;;;;;;;;;;4981070;28;20236;-85
2023/10/16 10:34:18;;;;;;;0.30;0.30;;;;;;;;;;4980602;28;20283;-84
2023/10/16 10:36:44;;;;;;;0.30;0.30;;;;;;;;;;4981311;28;20202;-84
2023/10/16 10:39:24;;;;;;;0.40;0.40;;;;;;;;;;4959445;28;20189;-82
2023/10/16 10:41:51;;;;;;;0.30;0.30;;;;;;;;;;4963845;28;20186;-82
2023/10/16 10:44:19;;;;;;;0.30;0.30;;;;;;;;;;4979153;28;20373;-83
2023/10/16 10:46:53;;;;;;;0.43;0.43;;;;;;;;;;4960989;28;20197;-82
2023/10/16 10:49:19;;;;;;;0.43;0.43;;;;;;;;;;4981052;28;20180;-87
2023/10/16 10:51:47;;;;;;;0.40;0.40;;;;;;;;;;4981793;28;20218;-85
2023/10/16 10:54:13;;;;;;;0.40;0.40;;;;;;;;;;4980605;28;20557;-85
2023/10/16 10:56:39;;;;;;;0.40;0.40;;;;;;;;;;4981322;28;20209;-82
2023/10/16 10:59:10;;;;;;;0.40;0.40;;;;;;;;;;4980583;28;20182;-84
2023/10/16 11:01:55;;;;;;;0.40;0.40;;;;;;;;;;4980718;28;20547;-84
2023/10/16 11:04:21;;;;;;;0.30;0.30;;;;;;;;;;4980570;28;20241;-84
2023/10/16 11:06:52;;;;;;;0.30;0.30;;;;;;;;;;4981674;28;20321;-81
2023/10/16 11:09:19;;;;;;;0.30;0.30;;;;;;;;;;4980785;28;20185;-86
2023/10/16 11:11:47;;;;;;;0.30;0.30;;;;;;;;;;4981338;28;20224;-83
2023/10/16 11:14:13;;;;;;;0.40;0.40;;;;;;;;;;4961311;28;20178;-84
2023/10/16 11:16:43;;;;;;;0.47;0.47;;;;;;;;;;4981041;28;20240;-84
2023/10/16 11:19:09;;;;;;;0.40;0.40;;;;;;;;;;4981023;28;20174;-83
2023/10/16 11:21:47;;;;;;;0.30;0.30;;;;;;;;;;4980425;28;20190;-83
2023/10/16 11:24:13;;;;;;;0.30;0.30;;;;;;;;;;4962697;28;20192;-83
2023/10/16 11:26:40;;;;;;;0.30;0.30;;;;;;;;;;4980218;28;20194;-83
2023/10/16 11:29:06;;;;;;;0.30;0.30;;;;;;;;;;4979627;28;20178;-84
2023/10/16 11:31:40;;;;;;;0.30;0.30;;;;;;;;;;4979732;28;20217;-84
2023/10/16 11:34:12;;;;;;;0.30;0.30;;;;;;;;;;4961702;28;20182;-82
2023/10/16 11:36:38;;;;;;;0.40;0.40;;;;;;;;;;4979947;28;20194;-82
2023/10/16 11:39:06;;;;;;;0.40;0.40;;;;;;;;;;4978367;28;20179;-84
2023/10/16 11:41:33;;;;;;;0.33;0.33;;;;;;;;;;4977886;28;20554;-86
2023/10/16 11:44:03;;;;;;;0.30;0.30;;;;;;;;;;4979802;28;20575;-86
2023/10/16 11:46:31;;;;;;;0.30;0.30;;;;;;;;;;4978805;28;20197;-85
2023/10/16 11:51:52;;;;;;;0.40;0.40;;;;;;;;;;4981789;28;20300;-86
2023/10/16 11:54:21;;;;;;;0.40;0.40;;;;;;;;;;4982484;28;20181;-85
2023/10/16 11:56:53;;;;;;;0.40;0.40;;;;;;;;;;4964693;28;20910;-83
2023/10/16 12:01:59;;;;;;;0.40;0.40;;;;;;;;;;5017088;23;20326;-85
2023/10/16 12:04:26;;;;;;;0.43;0.43;;;;;;;;;;5022342;28;20185;-86
2023/10/16 12:06:53;;;;;;;0.43;0.43;;;;;;;;;;5001819;28;20260;-86
2023/10/16 12:09:19;;;;;;;0.40;0.40;;;;;;;;;;4999003;28;20177;-85
2023/10/16 12:11:47;;;;;;;0.40;0.40;;;;;;;;;;4996556;28;20217;-87
2023/10/16 12:14:13;;;;;;;0.30;0.30;;;;;;;;;;4996369;28;20181;-84
2023/10/16 12:16:44;;;;;;;0.40;0.40;;;;;;;;;;4999592;28;20216;-84
2023/10/16 12:19:11;;;;;;;0.40;0.40;;;;;;;;;;4997583;28;20181;-86
2023/10/16 12:21:37;;;;;;;0.30;0.30;;;;;;;;;;5001524;28;20244;-85
2023/10/16 12:24:04;;;;;;;0.40;0.40;;;;;;;;;;5004639;28;20173;-85
2023/10/16 12:26:30;;;;;;;0.30;0.30;;;;;;;;;;5002285;28;20208;-84
2023/10/16 12:28:59;;;;;;;0.30;0.30;;;;;;;;;;5002840;28;20177;-86
2023/10/16 12:31:26;;;;;;;0.30;0.30;;;;;;;;;;5004618;28;20212;-82
2023/10/16 12:33:52;;;;;;;0.40;0.40;;;;;;;;;;5005701;28;20173;-82
2023/10/16 12:36:18;;;;;;;0.40;0.40;;;;;;;;;;5003825;28;20212;-86
2023/10/16 12:38:44;;;;;;;0.30;0.30;;;;;;;;;;5003756;28;20495;-88
2023/10/16 12:41:10;;;;;;;0.30;0.30;;;;;;;;;;5003100;28;20661;-86
2023/10/16 12:43:40;;;;;;;0.30;0.30;;;;;;;;;;5009301;28;20182;-84
2023/10/16 12:46:07;;;;;;;0.30;0.30;;;;;;;;;;5010169;28;20209;-86
2023/10/16 12:48:33;;;;;;;0.40;0.40;;;;;;;;;;5004650;28;20604;-84
2023/10/16 12:51:07;;;;;;;0.50;0.50;;;;;;;;;;5004195;28;20215;-84
2023/10/16 12:53:33;;;;;;;0.30;0.30;;;;;;;;;;5002867;28;20161;-83
2023/10/16 12:55:59;;;;;;;0.40;0.40;;;;;;;;;;5003367;28;20197;-83
2023/10/16 12:58:28;;;;;;;0.50;0.50;;;;;;;;;;5003198;28;20203;-87
2023/10/16 13:00:57;;;;;;;0.40;0.40;;;;;;;;;;5002985;28;20185;-85
2023/10/16 13:03:25;;;;;;;0.40;0.40;;;;;;;;;;5003011;28;20181;-86
2023/10/16 13:05:52;;;;;;;0.30;0.30;;;;;;;;;;5004833;28;20196;-86
2023/10/16 13:08:20;;;;;;;0.37;0.37;;;;;;;;;;5003180;28;20650;-86
2023/10/16 13:13:23;;;;;;;0.40;0.40;;;;;;;;;;5209373;23;20322;-84
2023/10/16 13:15:51;;;;;;;0.40;0.40;;;;;;;;;;5023927;28;20314;-87
2023/10/16 13:18:27;;;;;;;0.40;0.40;;;;;;;;;;5022615;28;20196;-87
2023/10/16 13:20:57;;;;;;;0.30;0.30;;;;;;;;;;5028022;28;20176;-87
2023/10/16 13:23:23;;;;;;;0.40;0.40;;;;;;;;;;5035885;28;20195;-84
2023/10/16 13:25:49;;;;;;;0.43;0.43;;;;;;;;;;5030800;28;20207;-82
2023/10/16 13:28:15;;;;;;;0.40;0.40;;;;;;;;;;5033786;28;20184;-83
2023/10/16 13:30:41;;;;;;;0.40;0.40;;;;;;;;;;5020377;28;20201;-87
2023/10/16 13:33:08;;;;;;;0.40;0.40;;;;;;;;;;5020575;28;20179;-84
2023/10/16 13:35:38;;;;;;;0.30;0.30;;;;;;;;;;5021671;28;20266;-86
2023/10/16 13:38:04;;;;;;;0.40;0.40;;;;;;;;;;5022138;28;20187;-85
2023/10/16 13:40:32;;;;;;;0.50;0.50;;;;;;;;;;5020856;28;20187;-85
2023/10/16 13:43:02;;;;;;;0.40;0.40;;;;;;;;;;5021415;28;20605;-86
2023/10/16 13:45:28;;;;;;;0.40;0.40;;;;;;;;;;5095714;23;20224;-86
2023/10/16 13:47:55;;;;;;;0.50;0.50;;;;;;;;;;5019006;28;20291;-86
2023/10/16 13:50:28;;;;;;;0.40;0.40;;;;;;;;;;5020945;28;20204;-84
2023/10/16 13:52:54;;;;;;;0.40;0.40;;;;;;;;;;5019930;28;20196;-85
2023/10/16 13:55:21;;;;;;;0.50;0.50;;;;;;;;;;5020750;28;20323;-86
2023/10/16 13:57:47;;;;;;;0.50;0.50;;;;;;;;;;5020006;28;20263;-87
2023/10/16 14:00:30;;;;;;;0.40;0.40;;;;;;;;;;5020456;28;20488;-87
2023/10/16 14:05:35;;;;;;;0.43;0.43;;;;;;;;;;5018796;28;20200;-86
2023/10/16 14:08:09;;;;;;;0.47;0.47;;;;;;;;;;5016631;28;20184;-87
2023/10/16 14:10:36;;;;;;;0.40;0.40;;;;;;;;;;5048663;23;20239;-88
2023/10/16 14:13:10;;;;;;;0.40;0.40;;;;;;;;;;5018827;28;20200;-86
2023/10/16 14:15:41;;;;;;;0.43;0.43;;;;;;;;;;5018745;28;20192;-87
2023/10/16 14:18:14;;;;;;;0.60;0.60;;;;;;;;;;5017952;28;20180;-86
2023/10/16 14:20:45;;;;;;;0.47;0.47;;;;;;;;;;5017839;28;20627;-86
2023/10/16 14:23:18;;;;;;;0.40;0.40;;;;;;;;;;5483053;23;20211;-85
2023/10/16 14:25:48;;;;;;;0.60;0.60;;;;;;;;;;5272305;23;20266;-87
2023/10/16 14:30:56;;;;;;;0.50;0.50;;;;;;;;;;5144843;23;20207;-86
2023/10/16 14:33:30;;;;;;;0.50;0.50;;;;;;;;;;5073554;23;20232;-80
2023/10/16 14:35:56;;;;;;;0.47;0.47;;;;;;;;;;5023360;28;20223;-83
2023/10/16 14:38:27;;;;;;;0.40;0.40;;;;;;;;;;5013415;28;20256;-83
2023/10/16 14:41:02;;;;;;;0.50;0.50;;;;;;;;;;5011304;28;20191;-82
2023/10/16 14:46:07;;;;;;;0.50;0.50;;;;;;;;;;5140039;23;20235;-82
2023/10/16 14:48:33;;;;;;;0.50;0.50;;;;;;;;;;5020914;28;20236;-83
2023/10/16 14:50:59;;;;;;;0.60;0.60;;;;;;;;;;5021027;28;20276;-80
2023/10/16 14:53:26;;;;;;;0.40;0.40;;;;;;;;;;5021739;28;20211;-80
2023/10/16 14:55:52;;;;;;;0.40;0.40;;;;;;;;;;5021452;28;20200;-82
2023/10/16 14:58:18;;;;;;;0.50;0.50;;;;;;;;;;5023094;28;20180;-82
2023/10/16 15:00:48;;;;;;;0.50;0.50;;;;;;;;;;5024564;28;20209;-81
2023/10/16 15:03:14;;;;;;;0.40;0.40;;;;;;;;;;5021573;28;20231;-85
2023/10/16 15:05:41;;;;;;;0.53;0.53;;;;;;;;;;5017967;28;20197;-85
2023/10/16 15:08:11;;;;;;;0.50;0.50;;;;;;;;;;5017123;28;20183;-84
2023/10/16 15:10:37;;;;;;;0.40;0.40;;;;;;;;;;5018544;28;20192;-83
2023/10/16 15:13:05;;;;;;;0.40;0.40;;;;;;;;;;5101024;23;20232;-86
2023/10/16 15:15:31;;;;;;;0.70;0.70;;;;;;;;;;5027137;28;20264;-85
2023/10/16 15:17:57;;;;;;;0.40;0.40;;;;;;;;;;5029216;28;20185;-87
2023/10/16 15:20:26;;;;;;;0.50;0.50;;;;;;;;;;5025978;28;20204;-87
2023/10/16 15:22:52;;;;;;;0.40;0.40;;;;;;;;;;5027123;28;20172;-86
2023/10/16 15:25:18;;;;;;;0.40;0.40;;;;;;;;;;5025812;28;20204;-86
2023/10/16 15:27:46;;;;;;;0.50;0.50;;;;;;;;;;5029773;28;20242;-86
2023/10/16 15:30:12;;;;;;;0.50;0.50;;;;;;;;;;5019355;28;20197;-84
2023/10/16 15:32:46;;;;;;;0.50;0.50;;;;;;;;;;5032484;28;20176;-86
2023/10/16 15:35:14;;;;;;;0.60;0.60;;;;;;;;;;5040062;28;20267;-90
2023/10/16 15:37:41;;;;;;;0.50;0.50;;;;;;;;;;5039926;28;20184;-87
2023/10/16 15:40:07;;;;;;;0.63;0.63;;;;;;;;;;5040314;28;20177;-83
2023/10/16 15:42:33;;;;;;;0.50;0.50;;;;;;;;;;5066603;23;20243;-94
2023/10/16 15:45:00;;;;;;;0.40;0.40;;;;;;;;;;5038950;28;20207;-87
2023/10/16 15:47:26;;;;;;;0.60;0.60;;;;;;;;;;5055040;23;20239;-89
2023/10/16 15:49:54;;;;;;;0.50;0.50;;;;;;;;;;4999301;28;20204;-87
2023/10/16 15:52:21;;;;;;;0.50;0.50;;;;;;;;;;4996490;28;20271;-82
2023/10/16 15:54:47;;;;;;;0.60;0.60;;;;;;;;;;4997877;28;20204;-83
2023/10/16 15:57:13;;;;;;;0.57;0.57;;;;;;;;;;4996224;28;20177;-83
2023/10/16 15:59:39;;;;;;;0.53;0.53;;;;;;;;;;4998375;28;20254;-84
2023/10/16 16:02:06;;;;;;;0.50;0.50;;;;;;;;;;4998593;28;20204;-86
2023/10/16 16:04:32;;;;;;;0.60;0.60;;;;;;;;;;4998738;28;20644;-85
2023/10/16 16:07:03;;;;;;;0.63;0.63;;;;;;;;;;4997527;28;20189;-83
2023/10/16 16:09:30;;;;;;;0.60;0.60;;;;;;;;;;4998331;28;20173;-83
2023/10/16 16:11:56;;;;;;;0.60;0.60;;;;;;;;;;4997947;28;20217;-81
2023/10/16 16:14:22;;;;;;;0.63;0.63;;;;;;;;;;5000603;28;20208;-80
2023/10/16 16:16:52;;;;;;;0.50;0.50;;;;;;;;;;5000536;28;20287;-84
2023/10/16 16:19:19;;;;;;;0.60;0.60;;;;;;;;;;5003957;28;20173;-85
2023/10/16 16:21:45;;;;;;;0.60;0.60;;;;;;;;;;5005161;28;20173;-87
2023/10/16 16:24:14;;;;;;;0.60;0.60;;;;;;;;;;5004730;28;20192;-87
2023/10/16 16:26:41;;;;;;;0.50;0.50;;;;;;;;;;5007505;28;20221;-84
2023/10/16 16:29:08;;;;;;;0.60;0.60;;;;;;;;;;5012500;28;20189;-83
2023/10/16 16:31:34;;;;;;;0.70;0.70;;;;;;;;;;5006631;28;20194;-80
2023/10/16 16:34:00;;;;;;;0.50;0.50;;;;;;;;;;5019801;28;20564;-85
2023/10/16 16:36:27;;;;;;;0.63;0.63;;;;;;;;;;5026888;28;20293;-84
2023/10/16 16:38:55;;;;;;;0.60;0.60;;;;;;;;;;5017992;28;20173;-81
2023/10/16 16:41:22;;;;;;;0.60;0.60;;;;;;;;;;5017944;28;20167;-81
2023/10/16 16:43:48;;;;;;;0.60;0.60;;;;;;;;;;5017839;28;20172;-83
2023/10/16 16:46:15;;;;;;;0.50;0.50;;;;;;;;;;5005024;28;20216;-85
2023/10/16 16:48:41;;;;;;;0.60;0.60;;;;;;;;;;4999385;28;20193;-83
2023/10/16 16:51:07;;;;;;;0.67;0.67;;;;;;;;;;4997713;28;20209;-84
2023/10/16 16:53:33;;;;;;;0.60;0.60;;;;;;;;;;5012114;28;20569;-82
2023/10/16 16:55:59;;;;;;;0.60;0.60;;;;;;;;;;5003773;28;20212;-83
2023/10/16 17:01:07;;;;;;;0.70;0.70;;;;;;;;;;5170575;23;20250;-84
2023/10/16 17:03:33;;;;;;;0.60;0.60;;;;;;;;;;5020505;28;20575;-84
2023/10/16 17:05:59;;;;;;;0.67;0.67;;;;;;;;;;5016706;28;20285;-85
2023/10/16 17:08:25;;;;;;;0.67;0.67;;;;;;;;;;5005564;28;20660;-81
2023/10/16 17:10:52;;;;;;;0.60;0.60;;;;;;;;;;5016669;28;20212;-85
2023/10/16 17:13:18;;;;;;;0.60;0.60;;;;;;;;;;5017583;28;20187;-86
2023/10/16 17:15:44;;;;;;;0.60;0.60;;;;;;;;;;5018605;28;20192;-84
2023/10/16 17:18:12;;;;;;;0.60;0.60;;;;;;;;;;5016078;28;20254;-81
2023/10/16 17:20:39;;;;;;;0.60;0.60;;;;;;;;;;5016946;28;20184;-85
2023/10/16 17:25:47;;;;;;;0.70;0.70;;;;;;;;;;5115191;23;20239;-85
2023/10/16 17:28:16;;;;;;;0.60;0.60;;;;;;;;;;5018410;28;20266;-86
2023/10/16 17:30:42;;;;;;;0.60;0.60;;;;;;;;;;5015518;28;20549;-85